Time;durP1;ratioP1;P1;durP2;ratioP2;P2;SDS_P1;SDS_P2;PMS_P1;PMS_P2;Temp;Humidity;BMP_temperature;BMP_pressure;BME280_temperature;BME280_humidity;BME280_pressure;Samples;Min_cycle;Max_cycle;Signal;HPM_P1;HPM_P2
2022/06/18 00:00:46;;;;;;;2.70;1.90;;;;;;;24.51;47.37;101680.75;5088884;28;20020;-59
2022/06/18 00:03:12;;;;;;;2.70;1.88;;;;;;;24.50;47.37;101684.47;5089164;28;20188;-58
2022/06/18 00:05:38;;;;;;;2.58;1.70;;;;;;;24.50;47.24;101681.75;5088989;28;20035;-59
2022/06/18 00:08:07;;;;;;;2.00;1.60;;;;;;;24.51;47.31;101685.31;5087716;28;20028;-58
2022/06/18 00:10:33;;;;;;;2.75;1.77;;;;;;;24.46;47.18;101675.00;5081088;28;20021;-58
2022/06/18 00:15:58;;;;;;;2.50;2.20;;;;;;;24.51;47.30;101688.03;5068524;28;20087;-58
2022/06/18 00:18:23;;;;;;;1.77;1.52;;;;;;;24.50;47.32;101680.91;5080529;28;20037;-58
2022/06/18 00:20:49;;;;;;;2.70;1.88;;;;;;;24.50;47.43;101679.03;5088271;28;20051;-58
2022/06/18 00:23:15;;;;;;;2.63;1.58;;;;;;;24.50;47.55;101675.47;5087191;28;20027;-58
2022/06/18 00:25:46;;;;;;;2.67;1.95;;;;;;;24.50;47.24;101675.47;5087198;28;20461;-58
2022/06/18 00:28:20;;;;;;;3.38;2.10;;;;;;;24.50;47.34;101673.59;5081588;28;20033;-58
2022/06/18 00:30:47;;;;;;;4.00;1.70;;;;;;;24.50;47.34;101675.47;5068177;28;20025;-58
2022/06/18 00:33:12;;;;;;;2.50;1.90;;;;;;;24.45;47.24;101670.59;5068182;28;20025;-58
2022/06/18 00:35:38;;;;;;;2.03;1.83;;;;;;;24.49;47.33;101674.63;5068242;28;20061;-58
2022/06/18 00:38:05;;;;;;;2.95;2.08;;;;;;;24.50;47.42;101679.03;5066956;28;20108;-58
2022/06/18 00:40:37;;;;;;;2.40;2.10;;;;;;;24.49;47.44;101677.34;5066666;28;20059;-58
2022/06/18 00:43:06;;;;;;;2.97;2.10;;;;;;;24.49;47.40;101674.63;5066062;28;20084;-58
2022/06/18 00:45:31;;;;;;;3.22;2.40;;;;;;;24.50;47.52;101672.75;5066926;28;20028;-58
2022/06/18 00:48:03;;;;;;;2.47;2.00;;;;;;;24.50;47.50;101670.03;5069577;28;20025;-58
2022/06/18 00:50:48;;;;;;;1.95;1.75;;;;;;;24.49;47.47;101665.63;5086626;28;20024;-58
2022/06/18 00:53:25;;;;;;;3.70;2.20;;;;;;;24.48;47.29;101658.53;5086824;28;20466;-58
2022/06/18 00:55:55;;;;;;;3.92;1.90;;;;;;;24.48;47.47;101658.53;5087142;28;20048;-58
2022/06/18 00:58:24;;;;;;;2.75;1.80;;;;;;;24.49;47.47;101654.78;5086501;28;20025;-58
2022/06/18 01:00:50;;;;;;;1.98;1.77;;;;;;;24.49;47.47;101652.03;5086414;28;20429;-58
2022/06/18 01:03:27;;;;;;;2.30;1.70;;;;;;;24.46;47.35;101647.81;5076921;28;20028;-58
2022/06/18 01:05:54;;;;;;;2.92;1.90;;;;;;;24.48;47.50;101645.78;5069967;28;20389;-58
2022/06/18 01:08:21;;;;;;;3.03;2.10;;;;;;;24.46;47.57;101646.97;5087643;28;20063;-58
2022/06/18 01:10:59;;;;;;;2.97;2.05;;;;;;;24.42;47.67;101641.06;5079368;28;20469;-58
2022/06/18 01:13:31;;;;;;;3.53;2.00;;;;;;;24.48;47.58;101647.66;5065862;28;20032;-57
2022/06/18 01:15:57;;;;;;;3.05;1.73;;;;;;;24.46;47.55;101639.66;5067506;28;20035;-57
2022/06/18 01:18:23;;;;;;;2.67;2.20;;;;;;;24.47;47.45;101646.81;5067365;28;20048;-58
2022/06/18 01:20:53;;;;;;;2.45;1.88;;;;;;;24.47;47.39;101643.22;5065988;28;20037;-58
2022/06/18 01:23:27;;;;;;;3.58;2.13;;;;;;;24.47;47.48;101643.22;5066198;28;20021;-58
2022/06/18 01:25:53;;;;;;;2.80;2.30;;;;;;;24.46;47.22;101639.66;5067437;28;20017;-58
2022/06/18 01:28:19;;;;;;;3.05;2.10;;;;;;;24.47;47.04;101640.50;5066891;28;20032;-58
2022/06/18 01:30:44;;;;;;;5.43;2.88;;;;;;;24.46;46.73;101626.06;5065829;28;20047;-57
2022/06/18 01:33:11;;;;;;;4.00;2.70;;;;;;;24.43;46.65;101621.03;5072986;28;20032;-58
2022/06/18 01:35:40;;;;;;;4.32;2.90;;;;;;;24.45;46.51;101624.38;5084868;28;20035;-59
2022/06/18 01:38:06;;;;;;;4.78;2.50;;;;;;;24.44;46.76;101617.28;5067177;28;20108;-58
2022/06/18 01:40:50;;;;;;;3.42;2.50;;;;;;;24.45;46.67;101621.66;5066938;28;20060;-59
2022/06/18 01:43:18;;;;;;;3.95;2.35;;;;;;;24.42;46.65;101616.59;5089428;28;20123;-58
2022/06/18 01:45:47;;;;;;;2.65;2.05;;;;;;;24.46;46.48;101622.50;5107362;28;20020;-59
2022/06/18 01:48:23;;;;;;;3.00;2.20;;;;;;;24.38;46.57;101610.72;5107260;28;20024;-60
2022/06/18 01:50:56;;;;;;;4.13;3.30;;;;;;;24.39;46.34;101611.56;5088842;28;20020;-59
2022/06/18 01:53:31;;;;;;;4.35;2.25;;;;;;;24.43;46.57;101612.88;5089152;28;20053;-59
2022/06/18 01:56:00;;;;;;;4.03;2.58;;;;;;;24.41;46.42;101618.47;5088960;28;20107;-59
2022/06/18 01:58:32;;;;;;;3.92;2.42;;;;;;;24.41;46.53;101617.63;5096271;28;20032;-59
2022/06/18 02:00:59;;;;;;;4.13;2.47;;;;;;;24.41;46.45;101612.22;5127089;28;20027;-59
2022/06/18 02:03:24;;;;;;;4.43;2.78;;;;;;;24.41;46.35;101604.88;5109234;28;20047;-59
2022/06/18 02:05:50;;;;;;;4.65;2.67;;;;;;;24.40;46.64;101611.38;5125192;28;20028;-59
2022/06/18 02:08:17;;;;;;;3.03;2.20;;;;;;;24.40;46.57;101610.53;5126200;28;20034;-59
2022/06/18 02:10:47;;;;;;;4.63;2.55;;;;;;;24.39;46.49;101608.84;5099996;28;20035;-58
2022/06/18 02:13:13;;;;;;;3.65;2.03;;;;;;;24.34;46.66;101600.34;5088158;28;20024;-59
2022/06/18 02:15:41;;;;;;;4.50;2.67;;;;;;;24.38;46.47;101609.84;5106626;28;20055;-60
2022/06/18 02:18:08;;;;;;;2.53;2.00;;;;;;;24.38;46.47;101608.00;5088676;28;20028;-59
2022/06/18 02:20:42;;;;;;;3.83;2.85;;;;;;;24.38;46.34;101598.97;5106272;28;20032;-59
2022/06/18 02:23:08;;;;;;;4.47;2.45;;;;;;;24.36;46.30;101604.59;5088647;28;20089;-59
2022/06/18 02:25:33;;;;;;;3.47;2.60;;;;;;;24.36;46.37;101610.03;5106633;28;20020;-59
2022/06/18 02:28:09;;;;;;;2.70;2.50;;;;;;;24.36;46.53;101612.75;5088191;28;20028;-59
2022/06/18 02:30:35;;;;;;;3.22;2.40;;;;;;;24.36;46.38;101603.75;5106263;28;20032;-59
2022/06/18 02:33:31;;;;;;;2.92;2.65;;;;;;;24.36;46.36;101601.88;5106517;28;20024;-59
2022/06/18 02:35:59;;;;;;;3.40;2.55;;;;;;;24.35;46.49;101605.63;5106313;28;20028;-59
2022/06/18 02:38:25;;;;;;;3.90;2.72;;;;;;;24.35;46.27;101602.91;5088129;28;20089;-59
2022/06/18 02:40:50;;;;;;;6.25;2.80;;;;;;;24.32;46.43;101605.16;5105891;28;20028;-59
2022/06/18 02:43:17;;;;;;;3.88;2.72;;;;;;;24.35;46.38;101613.78;5105644;28;20497;-59
2022/06/18 02:45:44;;;;;;;3.53;2.63;;;;;;;24.35;46.41;101605.63;5106159;28;20024;-58
2022/06/18 02:48:09;;;;;;;3.10;2.45;;;;;;;24.35;46.36;101607.50;5106248;28;20028;-59
2022/06/18 02:50:37;;;;;;;4.30;2.80;;;;;;;24.34;46.32;101603.94;5105824;28;20016;-59
2022/06/18 02:53:03;;;;;;;3.42;2.50;;;;;;;24.34;46.39;101608.50;5088109;28;20024;-59
2022/06/18 02:55:36;;;;;;;3.35;2.53;;;;;;;24.34;46.29;101603.94;5106117;28;20054;-59
2022/06/18 02:58:12;;;;;;;3.50;2.72;;;;;;;24.34;46.31;101605.78;5105410;28;20091;-59
2022/06/18 03:00:39;;;;;;;4.05;2.47;;;;;;;24.33;46.27;101607.66;5105836;28;20023;-59
2022/06/18 03:03:08;;;;;;;4.20;2.77;;;;;;;24.33;46.31;101606.84;5087872;28;20024;-59
2022/06/18 03:05:33;;;;;;;4.60;2.58;;;;;;;24.32;46.34;101600.56;5105852;28;20046;-59
2022/06/18 03:07:59;;;;;;;2.85;2.17;;;;;;;24.32;46.43;101616.88;5105974;28;20476;-58
2022/06/18 03:13:08;;;;;;;3.28;2.42;;;;;;;24.28;46.54;101612.00;5105381;28;20050;-59
2022/06/18 03:15:34;;;;;;;2.97;2.60;;;;;;;24.30;46.51;101621.66;5105662;28;20392;-58
2022/06/18 03:17:59;;;;;;;3.17;2.88;;;;;;;24.31;46.41;101617.06;5105468;28;20053;-58
2022/06/18 03:20:30;;;;;;;3.72;2.83;;;;;;;24.24;46.19;101616.13;5086836;28;20064;-57
2022/06/18 03:22:56;;;;;;;6.47;2.95;;;;;;;24.29;46.40;101617.22;5105788;28;20034;-58
2022/06/18 03:25:22;;;;;;;4.53;2.58;;;;;;;24.23;46.43;101618.00;5105666;28;20039;-58
2022/06/18 03:27:47;;;;;;;6.45;3.63;;;;;;;24.28;46.42;101623.69;5105473;28;20027;-62
2022/06/18 03:30:13;;;;;;;4.00;2.85;;;;;;;24.27;46.36;101627.47;5105104;28;20027;-58
2022/06/18 03:32:38;;;;;;;4.03;2.92;;;;;;;24.28;46.52;101622.88;5105686;28;20055;-58
2022/06/18 03:35:04;;;;;;;4.32;2.88;;;;;;;24.29;46.52;101627.25;5105434;28;20062;-58
2022/06/18 03:37:29;;;;;;;4.68;2.92;;;;;;;24.28;46.42;101633.72;5105145;28;20024;-58
2022/06/18 03:39:54;;;;;;;3.28;2.65;;;;;;;24.28;46.43;101633.72;5105328;28;20031;-57
2022/06/18 03:42:20;;;;;;;4.40;2.70;;;;;;;24.27;46.55;101638.34;5104699;28;20044;-58
2022/06/18 03:44:46;;;;;;;3.47;2.55;;;;;;;24.27;46.55;101635.63;5105623;28;20064;-58
2022/06/18 03:47:11;;;;;;;3.08;2.72;;;;;;;24.27;46.46;101643.75;5105199;28;20035;-58
2022/06/18 03:49:36;;;;;;;3.70;2.90;;;;;;;24.26;46.42;101641.25;5087062;28;20050;-58
2022/06/18 03:52:05;;;;;;;4.82;2.85;;;;;;;24.27;46.45;101646.47;5104656;28;20357;-58
2022/06/18 03:54:31;;;;;;;;;;;;;;;24.26;46.46;101646.69;5105858;28;20090;-58
2022/06/18 03:56:56;;;;;;;4.85;3.10;;;;;;;24.26;47.00;101646.69;5104842;28;19963;-58
2022/06/18 03:59:22;;;;;;;3.30;2.85;;;;;;;24.23;46.55;101645.16;5105159;28;20081;-59
2022/06/18 04:01:47;;;;;;;3.92;2.72;;;;;;;24.23;46.56;101647.88;5105357;28;20024;-58
2022/06/18 04:04:13;;;;;;;4.70;2.95;;;;;;;24.25;46.71;101653.13;5105126;28;20024;-58
2022/06/18 04:06:40;;;;;;;3.72;2.75;;;;;;;24.24;46.59;101648.72;5105224;28;20032;-58
2022/06/18 04:09:06;;;;;;;3.92;2.65;;;;;;;24.25;46.48;101653.13;5105035;28;20020;-58
2022/06/18 04:11:31;;;;;;;4.85;2.80;;;;;;;24.14;46.81;101635.41;5120005;28;20047;-54
2022/06/18 04:13:57;;;;;;;6.63;3.67;;;;;;;24.25;46.46;101655.84;5125560;28;20107;-58
2022/06/18 04:16:23;;;;;;;4.63;2.85;;;;;;;24.25;46.36;101662.13;5111020;28;20028;-58
2022/06/18 04:18:48;;;;;;;6.80;3.20;;;;;;;24.25;46.66;101656.69;5105084;28;20031;-56
2022/06/18 04:21:15;;;;;;;5.10;2.95;;;;;;;24.26;46.70;101662.97;5104788;28;20026;-58
2022/06/18 04:23:40;;;;;;;3.80;2.65;;;;;;;24.14;46.67;101638.97;5105232;28;20027;-58
2022/06/18 04:26:05;;;;;;;4.60;2.90;;;;;;;24.24;46.85;101660.44;5105017;28;20024;-58
2022/06/18 04:28:31;;;;;;;5.80;3.17;;;;;;;24.25;46.86;101651.25;5104512;28;20032;-58
2022/06/18 04:30:56;;;;;;;4.78;2.95;;;;;;;24.25;47.05;101661.28;5106283;28;20027;-58
2022/06/18 04:33:21;;;;;;;5.82;2.80;;;;;;;24.25;46.77;101655.84;5090799;28;20384;-58
2022/06/18 04:35:52;;;;;;;3.80;2.88;;;;;;;24.25;46.77;101658.56;5116813;28;20066;-58
2022/06/18 04:38:17;;;;;;;4.38;3.05;;;;;;;24.25;47.01;101664.84;5129169;28;20020;-59
2022/06/18 04:40:42;;;;;;;5.10;3.15;;;;;;;24.26;46.79;101665.69;5128845;28;20082;-59
2022/06/18 04:43:09;;;;;;;5.68;3.03;;;;;;;24.25;46.92;101664.84;5128370;28;20168;-59
2022/06/18 04:45:35;;;;;;;3.63;2.65;;;;;;;24.26;46.76;101665.69;5128654;28;20464;-58
2022/06/18 04:48:00;;;;;;;4.55;2.85;;;;;;;24.27;46.73;101661.94;5128939;28;20031;-59
2022/06/18 04:50:29;;;;;;;4.60;3.45;;;;;;;24.20;46.70;101646.38;5128658;28;20086;-59
2022/06/18 04:52:55;;;;;;;6.13;3.08;;;;;;;24.28;46.73;101658.19;5129085;28;20096;-59
2022/06/18 04:55:20;;;;;;;6.25;3.50;;;;;;;24.19;46.64;101639.25;5128792;28;20051;-59
2022/06/18 04:57:46;;;;;;;3.53;2.65;;;;;;;24.27;46.61;101654.63;5128346;28;20031;-59
2022/06/18 05:00:12;;;;;;;3.80;3.10;;;;;;;24.27;46.77;101643.75;5124166;28;20028;-59
2022/06/18 05:02:38;;;;;;;3.38;2.90;;;;;;;24.28;46.71;101644.59;5090156;28;20051;-59
2022/06/18 05:05:05;;;;;;;5.78;2.67;;;;;;;24.28;46.84;101647.31;5107326;28;20023;-59
2022/06/18 05:07:30;;;;;;;7.40;3.35;;;;;;;24.28;46.77;101642.72;5119432;28;20016;-59
2022/06/18 05:09:55;;;;;;;3.10;2.80;;;;;;;24.26;46.61;101644.81;5125768;28;20028;-59
2022/06/18 05:12:21;;;;;;;4.32;2.88;;;;;;;24.28;46.89;101647.31;5107006;28;20028;-58
2022/06/18 05:14:46;;;;;;;3.75;2.95;;;;;;;24.22;46.98;101638.06;5107964;28;20048;-58
2022/06/18 05:17:15;;;;;;;5.88;2.88;;;;;;;24.30;47.03;101645.25;5107481;28;20054;-58
2022/06/18 05:19:40;;;;;;;5.15;2.70;;;;;;;24.29;46.72;101643.56;5089632;28;20031;-58
2022/06/18 05:22:05;;;;;;;4.38;3.20;;;;;;;24.29;47.07;101646.28;5107776;28;20028;-60
2022/06/18 05:24:31;;;;;;;3.10;2.80;;;;;;;24.29;47.09;101643.56;5107424;28;20531;-59
2022/06/18 05:26:58;;;;;;;4.03;3.25;;;;;;;24.24;46.96;101638.69;5107249;28;20480;-59
2022/06/18 05:29:24;;;;;;;5.13;2.72;;;;;;;24.30;47.03;101650.69;5107281;28;20026;-59
2022/06/18 05:31:49;;;;;;;5.70;3.65;;;;;;;24.30;46.95;101646.13;5107502;28;20051;-59
2022/06/18 05:34:14;;;;;;;5.53;3.53;;;;;;;24.30;46.86;101651.56;5107279;28;20128;-59
2022/06/18 05:36:40;;;;;;;3.85;2.80;;;;;;;24.31;47.01;101647.78;5107323;28;20111;-59
2022/06/18 05:39:06;;;;;;;3.20;2.80;;;;;;;24.31;47.14;101647.78;5107245;28;20081;-58
2022/06/18 05:41:31;;;;;;;6.00;3.47;;;;;;;24.31;46.95;101653.22;5106298;28;20091;-56
2022/06/18 05:43:57;;;;;;;6.60;3.20;;;;;;;24.32;47.11;101654.06;5107123;28;20047;-59
2022/06/18 05:46:22;;;;;;;3.50;3.10;;;;;;;24.31;47.08;101652.41;5107011;28;20043;-59
2022/06/18 05:48:48;;;;;;;4.72;3.03;;;;;;;24.31;47.19;101661.38;5107284;28;20046;-59
2022/06/18 05:51:13;;;;;;;5.05;2.90;;;;;;;24.31;47.14;101655.94;5106907;28;20020;-59
2022/06/18 05:53:38;;;;;;;5.93;3.22;;;;;;;24.32;47.08;101654.91;5107042;28;20024;-58
2022/06/18 05:56:04;;;;;;;4.85;3.03;;;;;;;24.25;47.09;101643.09;5106953;28;20115;-59
2022/06/18 05:58:29;;;;;;;5.03;3.15;;;;;;;24.32;47.14;101657.63;5106535;28;20028;-59
2022/06/18 06:00:55;;;;;;;3.88;2.97;;;;;;;24.33;47.24;101655.75;5115826;28;20028;-59
2022/06/18 06:03:20;;;;;;;5.45;2.83;;;;;;;24.33;47.28;101645.72;5127133;28;20030;-59
2022/06/18 06:05:46;;;;;;;4.55;2.80;;;;;;;24.32;47.25;101654.91;5127202;28;20035;-59
2022/06/18 06:08:12;;;;;;;4.18;3.03;;;;;;;24.33;47.44;101647.59;5127100;28;20028;-59
2022/06/18 06:13:22;;;;;;;5.43;3.67;;;;;;;24.32;47.46;101654.91;5106054;28;20031;-59
2022/06/18 06:15:48;;;;;;;4.53;2.92;;;;;;;24.33;47.71;101667.47;5106632;28;20036;-59
2022/06/18 06:18:15;;;;;;;5.18;3.42;;;;;;;24.33;47.44;101663.91;5106461;28;20044;-59
2022/06/18 06:20:43;;;;;;;6.03;3.42;;;;;;;24.30;47.61;101656.13;5106454;28;20028;-59
2022/06/18 06:23:09;;;;;;;4.20;2.80;;;;;;;24.33;47.47;101662.03;5106476;28;20489;-60
2022/06/18 06:25:35;;;;;;;3.78;3.42;;;;;;;24.33;47.60;101659.31;5106416;28;20103;-59
2022/06/18 06:28:00;;;;;;;4.70;3.33;;;;;;;24.34;47.53;101662.88;5106041;28;20024;-59
2022/06/18 06:30:26;;;;;;;4.22;2.97;;;;;;;24.34;47.65;101669.19;5113381;28;20032;-59
2022/06/18 06:32:51;;;;;;;4.88;2.90;;;;;;;24.34;47.76;101668.31;5126706;28;20087;-59
2022/06/18 06:35:17;;;;;;;5.53;3.10;;;;;;;24.34;47.82;101674.59;5108186;28;20032;-59
2022/06/18 06:37:42;;;;;;;4.75;3.22;;;;;;;24.34;47.92;101671.91;5126633;28;20049;-59
2022/06/18 06:40:08;;;;;;;6.68;3.53;;;;;;;24.33;47.83;101667.47;5126464;28;20683;-59
2022/06/18 06:42:49;;;;;;;6.95;2.88;;;;;;;24.34;47.73;101674.59;5105634;28;20043;-59
2022/06/18 06:45:22;;;;;;;5.32;3.45;;;;;;;24.35;47.79;101680.88;5126452;28;20031;-59
2022/06/18 06:47:48;;;;;;;6.18;3.58;;;;;;;24.35;47.94;101675.44;5126661;28;20012;-59
2022/06/18 06:50:15;;;;;;;3.97;3.25;;;;;;;24.35;48.09;101681.72;5126111;28;20053;-58
2022/06/18 06:52:41;;;;;;;3.28;2.97;;;;;;;24.36;48.27;101679.84;5126214;28;20039;-59
2022/06/18 06:57:57;;;;;;;6.80;3.78;;;;;;;24.26;48.19;101674.69;5108324;28;20030;-59
2022/06/18 07:00:23;;;;;;;5.05;3.40;;;;;;;24.37;47.99;101687.84;5125812;28;20031;-59
2022/06/18 07:02:48;;;;;;;5.25;3.10;;;;;;;24.37;47.96;101689.69;5126155;28;20110;-59
2022/06/18 07:05:14;;;;;;;4.90;3.50;;;;;;;24.34;48.10;101676.47;5107903;28;20030;-59
2022/06/18 07:07:39;;;;;;;5.72;3.55;;;;;;;24.38;48.13;101684.13;5126036;28;20046;-59
2022/06/18 07:10:05;;;;;;;5.57;3.10;;;;;;;24.39;48.05;101687.66;5122499;28;20016;-59
2022/06/18 07:12:30;;;;;;;4.93;3.20;;;;;;;24.37;48.00;101692.41;5104915;28;20028;-60
2022/06/18 07:14:56;;;;;;;5.00;3.10;;;;;;;24.37;48.07;101693.28;5105801;28;20024;-59
2022/06/18 07:17:22;;;;;;;4.10;3.38;;;;;;;24.37;48.00;101697.84;5105506;28;20028;-59
2022/06/18 07:19:47;;;;;;;6.15;3.20;;;;;;;24.39;48.13;101691.22;5105272;28;20111;-60
2022/06/18 07:22:13;;;;;;;5.40;3.60;;;;;;;24.34;48.16;101690.91;5105437;28;20060;-59
2022/06/18 07:24:39;;;;;;;4.82;3.25;;;;;;;24.40;48.05;101708.38;5105579;28;20028;-59
2022/06/18 07:27:04;;;;;;;7.57;4.65;;;;;;;24.41;48.02;101713.63;5117164;28;20026;-59
2022/06/18 07:29:30;;;;;;;5.03;3.10;;;;;;;24.42;48.06;101717.19;5125745;28;20055;-59
2022/06/18 07:32:04;;;;;;;4.82;3.55;;;;;;;24.42;47.97;101709.03;5125787;28;20024;-59
2022/06/18 07:34:29;;;;;;;5.75;3.60;;;;;;;24.26;47.88;101692.88;5125484;28;20046;-58
2022/06/18 07:36:55;;;;;;;6.00;3.35;;;;;;;24.43;48.08;101714.28;5125685;28;20464;-59
2022/06/18 07:39:20;;;;;;;4.53;3.50;;;;;;;24.44;47.99;101712.41;5125632;28;20364;-59
2022/06/18 07:41:52;;;;;;;4.05;3.13;;;;;;;24.44;48.02;101715.13;5125014;28;20055;-59
2022/06/18 07:44:18;;;;;;;5.05;3.20;;;;;;;24.44;48.25;101707.81;5125463;28;20056;-59
2022/06/18 07:46:45;;;;;;;5.80;3.17;;;;;;;24.46;48.09;101712.22;5125760;28;20520;-59
2022/06/18 07:49:11;;;;;;;6.47;3.53;;;;;;;24.41;48.23;101705.47;5125430;28;20023;-59
2022/06/18 07:51:36;;;;;;;4.78;3.28;;;;;;;24.42;47.97;101703.59;5125604;28;20456;-59
2022/06/18 07:54:01;;;;;;;6.22;3.58;;;;;;;24.48;48.03;101708.28;5125769;28;20023;-59
2022/06/18 07:56:27;;;;;;;5.30;3.60;;;;;;;24.50;47.96;101713.53;5118057;28;20024;-58
2022/06/18 07:58:52;;;;;;;7.05;4.28;;;;;;;24.48;48.02;101702.84;5104635;28;20028;-59
2022/06/18 08:01:17;;;;;;;4.90;3.20;;;;;;;24.50;47.82;101705.38;5104917;28;20028;-60
2022/06/18 08:03:42;;;;;;;4.80;3.08;;;;;;;24.53;47.91;101705.00;5104997;28;20050;-59
2022/06/18 08:06:08;;;;;;;6.53;3.53;;;;;;;24.53;47.98;101703.13;5107102;28;20039;-59
2022/06/18 08:08:34;;;;;;;3.65;3.28;;;;;;;24.49;48.06;101690.09;5109399;28;20035;-59
2022/06/18 08:10:59;;;;;;;5.00;3.30;;;;;;;24.55;47.88;101695.66;5119992;28;20028;-59
2022/06/18 08:13:24;;;;;;;3.75;3.25;;;;;;;24.53;47.73;101686.81;5110435;28;20031;-59
2022/06/18 08:15:50;;;;;;;4.30;3.45;;;;;;;24.56;47.66;101697.34;5129269;28;20032;-58
2022/06/18 08:18:16;;;;;;;5.30;3.47;;;;;;;24.57;47.88;101693.56;5129258;28;20065;-59
2022/06/18 08:20:41;;;;;;;4.07;3.17;;;;;;;24.58;47.87;101697.97;5129181;28;20083;-59
2022/06/18 08:23:07;;;;;;;6.90;3.38;;;;;;;24.59;47.76;101694.22;5128677;28;20043;-58
2022/06/18 08:25:34;;;;;;;4.43;3.20;;;;;;;24.61;47.83;101699.50;5129099;28;20464;-59
2022/06/18 08:28:02;;;;;;;6.38;3.55;;;;;;;24.61;47.85;101697.59;5128912;28;20127;-59
2022/06/18 08:30:28;;;;;;;5.40;3.50;;;;;;;24.63;47.82;101705.56;5110668;28;20464;-58
2022/06/18 08:32:53;;;;;;;6.75;3.40;;;;;;;24.63;47.86;101700.13;5129242;28;20034;-59
2022/06/18 08:35:19;;;;;;;6.00;3.50;;;;;;;24.63;47.81;101698.25;5128772;28;20102;-59
2022/06/18 08:37:44;;;;;;;5.75;3.60;;;;;;;24.65;47.97;101693.47;5129106;28;20027;-60
2022/06/18 08:40:35;;;;;;;6.50;3.90;;;;;;;24.65;47.68;101688.03;5128690;28;20024;-62
2022/06/18 08:43:14;;;;;;;5.45;4.05;;;;;;;24.62;47.87;101687.56;5112257;28;20049;-59
2022/06/18 08:46:03;;;;;;;;;;;;;;;24.67;47.64;101693.28;5091524;28;20031;-59
2022/06/18 08:48:56;;;;;;;5.68;3.50;;;;;;;24.68;47.53;101689.56;5005983;28;19917;-59
2022/06/18 08:51:45;;;;;;;3.60;3.10;;;;;;;24.69;47.87;101688.53;5005942;28;20125;-59
2022/06/18 08:54:51;;;;;;;4.82;4.03;;;;;;;24.69;48.01;101693.97;4989806;28;20042;-59
2022/06/18 08:57:47;;;;;;;12.52;5.07;;;;;;;24.69;48.04;101696.69;4989280;28;20026;-59
2022/06/18 09:00:18;;;;;;;6.60;3.47;;;;;;;24.61;47.91;101685.91;5005950;28;20042;-59
2022/06/18 09:02:49;;;;;;;5.40;4.55;;;;;;;24.63;47.86;101681.09;5006226;28;20022;-59
2022/06/18 09:05:26;;;;;;;5.47;3.42;;;;;;;24.72;47.83;101687.28;4989515;28;20503;-61
2022/06/18 09:08:10;;;;;;;7.07;3.65;;;;;;;24.72;47.88;101693.56;4989805;28;20086;-62
2022/06/18 09:10:51;;;;;;;4.43;3.47;;;;;;;24.73;47.75;101697.16;5012806;28;20044;-57
2022/06/18 09:13:26;;;;;;;6.40;3.80;;;;;;;24.69;48.05;101678.47;5024534;28;20041;-60
2022/06/18 09:15:57;;;;;;;6.32;3.35;;;;;;;24.74;47.82;101677.06;5008458;28;20033;-60
2022/06/18 09:18:27;;;;;;;7.18;4.78;;;;;;;24.74;47.97;101672.47;5008713;28;20084;-60
2022/06/18 09:20:56;;;;;;;5.22;3.15;;;;;;;24.74;48.04;101677.91;5008494;28;20109;-60
2022/06/18 09:23:26;;;;;;;4.68;3.55;;;;;;;24.76;47.79;101675.00;5025566;28;20029;-60
2022/06/18 09:25:53;;;;;;;6.05;3.67;;;;;;;24.77;47.84;101676.69;5078697;28;20047;-60
2022/06/18 09:28:25;;;;;;;6.45;3.65;;;;;;;24.77;47.92;101680.25;5107115;28;20026;-58
2022/06/18 09:30:55;;;;;;;5.88;3.35;;;;;;;24.79;47.97;101678.19;5107478;28;20088;-60
2022/06/18 09:33:33;;;;;;;5.68;3.35;;;;;;;24.80;47.92;101676.31;5107585;28;20080;-58
2022/06/18 09:36:19;;;;;;;4.95;3.17;;;;;;;24.81;47.94;101689.72;5107338;28;20024;-58
2022/06/18 09:38:48;;;;;;;6.88;4.55;;;;;;;24.80;47.97;101688.03;5106134;28;20111;-58
2022/06/18 09:41:16;;;;;;;;;;;;;;;24.80;48.05;101688.03;5091532;28;20142;-58
2022/06/18 09:43:55;;;;;;;6.80;3.70;;;;;;;24.81;48.06;101683.44;5106871;28;19916;-58
2022/06/18 09:46:30;;;;;;;5.28;4.05;;;;;;;24.84;47.91;101680.34;5107114;28;20046;-58
2022/06/18 09:48:55;;;;;;;6.90;3.60;;;;;;;24.83;47.88;101684.94;5089185;28;20027;-58
2022/06/18 09:51:46;;;;;;;5.65;3.80;;;;;;;24.82;47.74;101682.41;5088672;28;20024;-58
2022/06/18 09:54:14;;;;;;;4.78;3.42;;;;;;;24.82;47.82;101687.84;5089135;28;20020;-58
2022/06/18 09:56:44;;;;;;;5.35;3.55;;;;;;;24.87;47.61;101699.00;5088778;28;20487;-58
2022/06/18 09:59:31;;;;;;;4.45;2.80;;;;;;;24.89;47.56;101694.19;5088910;28;20489;-58
2022/06/18 10:01:56;;;;;;;4.72;3.40;;;;;;;24.81;47.64;101672.56;5088777;28;20500;-58
2022/06/18 10:07:18;;;;;;;3.92;3.30;;;;;;;24.85;47.64;101682.00;5091582;28;20427;-59
2022/06/18 10:09:51;;;;;;;5.72;3.10;;;;;;;24.90;47.92;101680.44;5088676;28;20027;-58
2022/06/18 10:12:23;;;;;;;4.10;3.65;;;;;;;24.94;47.89;101691.78;5106396;28;20031;-58
2022/06/18 10:14:53;;;;;;;8.95;4.45;;;;;;;24.93;47.68;101682.78;5106735;28;20028;-58
2022/06/18 10:17:44;;;;;;;4.40;3.10;;;;;;;24.97;47.62;101685.09;5088414;28;20024;-58
2022/06/18 10:20:31;;;;;;;5.22;3.08;;;;;;;24.97;47.58;101677.78;5088603;28;20056;-58
2022/06/18 10:23:36;;;;;;;6.25;3.00;;;;;;;24.99;47.60;101678.44;5088599;28;20031;-58
2022/06/18 10:26:20;;;;;;;6.43;3.33;;;;;;;25.01;47.58;101667.34;5075500;28;20097;-58
2022/06/18 10:29:17;;;;;;;4.25;2.97;;;;;;;25.02;47.67;101666.31;5105268;28;20024;-58
2022/06/18 10:32:09;;;;;;;4.82;3.08;;;;;;;25.02;47.49;101659.03;5106280;28;20031;-58
2022/06/18 10:35:02;;;;;;;4.32;2.92;;;;;;;25.02;47.61;101659.03;5106158;28;20052;-58
2022/06/18 10:37:55;;;;;;;6.18;3.05;;;;;;;25.04;47.77;101667.00;5106216;28;20028;-58
2022/06/18 10:40:30;;;;;;;5.72;3.20;;;;;;;25.04;47.48;101662.38;5088145;28;20083;-57
2022/06/18 10:43:29;;;;;;;5.68;2.95;;;;;;;25.06;47.70;101651.28;5087362;28;20107;-57
2022/06/18 10:46:00;;;;;;;5.53;3.17;;;;;;;25.07;47.63;101663.88;5106342;28;20020;-58
2022/06/18 10:48:28;;;;;;;4.55;2.97;;;;;;;25.07;47.49;101661.16;5106012;28;20031;-58
2022/06/18 10:50:56;;;;;;;3.47;2.70;;;;;;;25.08;47.57;101652.84;5105988;28;20050;-59
2022/06/18 10:53:24;;;;;;;4.53;2.97;;;;;;;25.09;47.62;101653.69;5087994;28;20465;-58
2022/06/18 10:56:05;;;;;;;6.60;2.70;;;;;;;25.10;47.51;101658.91;5105742;28;20060;-58
2022/06/18 10:58:31;;;;;;;4.85;3.00;;;;;;;25.06;47.46;101648.56;5105563;28;20503;-58
2022/06/18 11:01:02;;;;;;;4.78;3.05;;;;;;;25.12;47.54;101670.47;5105757;28;20024;-58
2022/06/18 11:03:33;;;;;;;5.40;3.00;;;;;;;25.13;47.52;101655.81;5087719;28;20057;-58
2022/06/18 11:06:03;;;;;;;4.78;2.80;;;;;;;25.15;47.50;101650.19;5087426;28;20069;-58
2022/06/18 11:08:30;;;;;;;2.83;2.35;;;;;;;25.14;47.61;101643.06;5105803;28;20038;-58
2022/06/18 11:10:56;;;;;;;2.97;2.67;;;;;;;25.17;47.49;101645.41;5094729;28;20110;-58
2022/06/18 11:13:44;;;;;;;3.53;3.05;;;;;;;25.18;47.45;101647.91;5105191;28;20031;-58
2022/06/18 11:16:16;;;;;;;4.05;2.85;;;;;;;25.20;47.44;101642.28;5105732;28;20043;-58
2022/06/18 11:18:44;;;;;;;5.88;3.08;;;;;;;25.20;47.48;101634.13;5105764;28;20461;-58
2022/06/18 11:21:23;;;;;;;3.90;2.88;;;;;;;25.23;47.34;101638.34;5105224;28;20030;-58
2022/06/18 11:23:57;;;;;;;4.05;2.78;;;;;;;25.23;47.36;101625.56;5105534;28;20746;-59
2022/06/18 11:26:24;;;;;;;5.22;2.92;;;;;;;25.25;47.30;101617.22;5087284;28;20043;-57
2022/06/18 11:28:52;;;;;;;3.50;2.75;;;;;;;25.23;47.23;101620.13;5087175;28;20032;-58
2022/06/18 11:31:28;;;;;;;2.85;2.47;;;;;;;25.28;47.37;101628.56;5087246;28;20027;-58
2022/06/18 11:34:07;;;;;;;3.30;2.38;;;;;;;25.29;47.13;101630.25;5105717;28;20028;-58
2022/06/18 11:36:46;;;;;;;3.42;2.55;;;;;;;25.28;47.28;101628.56;5087481;28;20016;-57
2022/06/18 11:39:40;;;;;;;3.95;3.10;;;;;;;25.30;47.49;101625.66;5110845;28;20073;-58
2022/06/18 11:42:05;;;;;;;4.43;3.05;;;;;;;25.28;47.31;101623.13;5124961;28;20028;-58
2022/06/18 11:44:41;;;;;;;3.38;2.83;;;;;;;25.24;47.23;101612.81;5125905;28;20046;-59
2022/06/18 11:47:20;;;;;;;5.40;2.75;;;;;;;25.30;47.49;101617.47;5107491;28;20045;-58
2022/06/18 11:49:55;;;;;;;6.38;3.33;;;;;;;25.24;47.52;101601.94;5107588;28;20049;-59
2022/06/18 11:52:28;;;;;;;4.82;2.80;;;;;;;25.30;47.48;101612.88;5107622;28;20015;-57